Bethel, ME (04217)

9:07 AM EST on January 21, 2017 (GMT -0500)
Church Street | | Change Station
Active Advisory: Gale Watch

Elev 731 ft 44.40 °N, 70.79 °W | Updated 43 seconds ago

Overcast
Overcast
31.5 °F
Feels Like 32 °F
N
0.6
Wind Variable Wind from South
Gusts 2.5 mph

Today
High -- | Low -- °F
--% Chance of Precip.
Yesterday
High -- | Low -- °F
Precip. -- in
Pressure 29.83 in
Visibility 2.5 miles
Clouds Overcast 900 ft
Windchill 32 °F
Dew Point 27 °F
Humidity 83%
Rainfall Not available.
Snow Depth Not available.
7:11 AM 4:37 PM
Waning Crescent, 35% visible
METAR KBML 211352Z AUTO 00000KT 2 1/2SM BR OVC009 M02/M03 A2977 RMK AO2 SLP101 T10171033
Pressure 29.83 in
Visibility 2.5 miles
Clouds Overcast 900 ft
Windchill 32 °F
Dew Point 27 °F
Humidity 83%
Rainfall Not available.
Snow Depth Not available.
7:11 AM 4:37 PM
Waning Crescent, 35% visible
METAR KBML 211352Z AUTO 00000KT 2 1/2SM BR OVC009 M02/M03 A2977 RMK AO2 SLP101 T10171033

Get Your Daily Forecast Email!

Thanks for signing up!

Be on the lookout for a verification email in your inbox.

You'll start receiving the daily forecast at 8 AM.

×

10-Day Weather Forecast

Almanac

Astronomy

Jan. 21, 2017 Rise Set
Actual Time
Civil Twilight
Nautical Twilight
Astronomical Twilight
Moon
Length of Visible Light
Length of Day
Tomorrow will be .
, % of the Moon is Illuminated

Today's Extremes

State Highs State Lows

Community

WunderPhotos

Upload Photos

1,962,540 photos uploaded!

WunderBlog® & News

Nearby

Air Quality

  Air Quality AQ Index Pollutant
Not available.

Snow Depth

Station Depth Elevation

Earthquake Activity

City Distance Mag. Time & Date
Minimum magnitude displayed is 2.5.

Coastal Water Temperatures

Place Temperature

Stations

Nearby Weather Stations

Station Location Temp. Windchill Dew Point Humidity Wind Precip. Elev Updated Type
                   

Watches & Warnings

Gale Watch
Issued: 3:39 AM EST Jan. 21, 2017 – National Weather Service

... Gale watch in effect from Monday afternoon through late Monday
night...

The National Weather Service in gray has issued a gale watch...
which is in effect from Monday afternoon through late Monday
night.

* Winds... east 20 to 30 kt with gusts up to 45 kt.

* Seas... 6 to 9 feet.

Precautionary/preparedness actions...

A gale watch is issued when the risk of gale force winds of 34 to
47 knots has significantly increased... but the specific timing
and/or location is still uncertain. It is intended to provide
additional lead time for mariners who may wish to consider
altering their plans.